Main page
METAR-TAF:

METAR-TAF

Airports :

Tirupati Airport

Tirupati, India

latitude: 13-38-16N, longitude: 79-32-50E, elevation: 107 m

Current weather observation

The report was made 5 hours and 59 minutes ago, at 15:30 UTC
Wind 2 kt from variable directions
Temperature 25°C
Humidity 94%
Pressure 1012 hPa
Visibility: 4000 m
Few clouds at a height of 2000 ft
mist

METAR: VOTP 011530Z VRB02KT 4000 BR FEW020 25/24 Q1012 NOSIG

Time: 02:59 (21:29 UTC)

Forecast

The report was made 4 hours and 29 minutes ago, at 17:00 UTC
Forecast valid from 01 at 18 UTC to 02 at 03 UTC
Wind 7 kt from the Northeast
Visibility: 5000 m
Few clouds at a height of 2000 ft
haze
Temporary
from 01 at 23 UTC to 02 at 03 UTC
Wind 3 kt from variable directions
Visibility: 3000 m
Few clouds at a height of 2000 ft
mist

TAF: VOTP 011700Z 0118/0203 05007KT 5000 HZ FEW020 TEMPO 0123/0203 VRB03KT 3000 BR FEW020

Weather observations and forecasts of more than 4000 airports (METAR and TAF reports).

The available stations are represented by yellow and red dots on the map.

Hover mouse over dot to see the name of the station.

Then click to see weather observations and forecasts.

To change the map : click on the green buttons with a black cross to zoom in, on the green button with a dash to zoom out, or on the green arrows for adjacent maps.


METAR-TAF: